createdAt,value
2023-01-18T00:01:05.118Z,18.65
2023-01-18T00:03:34.447Z,18.35
2023-01-18T00:06:03.600Z,17.67
2023-01-18T00:08:32.978Z,19.25
2023-01-18T00:11:05.660Z,17.83
2023-01-18T00:13:34.535Z,17.38
2023-01-18T00:16:04.028Z,18.13
2023-01-18T00:18:31.808Z,18.23
2023-01-18T00:21:02.675Z,17.35
2023-01-18T00:23:30.278Z,18.05
2023-01-18T00:26:02.188Z,18.48
2023-01-18T00:28:29.768Z,18.30
2023-01-18T00:30:57.535Z,18.35
2023-01-18T00:33:24.851Z,18.73
2023-01-18T00:35:57.755Z,19.27
2023-01-18T00:38:26.246Z,19.38
2023-01-18T00:40:53.768Z,17.70
2023-01-18T00:43:41.157Z,17.70
2023-01-18T00:46:12.972Z,18.08
2023-01-18T00:48:41.344Z,18.30
2023-01-18T00:51:11.059Z,18.13
2023-01-18T00:53:38.477Z,17.83
2023-01-18T00:56:08.886Z,17.92
2023-01-18T00:58:37.659Z,17.38
2023-01-18T01:01:07.045Z,16.38
2023-01-18T01:03:55.087Z,17.02
2023-01-18T01:06:46.285Z,17.60
2023-01-18T01:09:22.644Z,18.70
2023-01-18T01:12:10.615Z,18.08
2023-01-18T01:15:01.218Z,21.15
2023-01-18T01:17:50.242Z,21.88
2023-01-18T01:20:38.160Z,19.48
2023-01-18T01:23:38.873Z,18.73
2023-01-18T01:26:08.476Z,19.80
2023-01-18T01:28:36.960Z,19.60
2023-01-18T01:31:06.265Z,19.27
2023-01-18T01:33:35.354Z,20.27
2023-01-18T01:36:06.807Z,19.50
2023-01-18T01:38:34.460Z,19.90
2023-01-18T01:41:05.161Z,20.80
2023-01-18T01:43:44.969Z,19.13
2023-01-18T01:46:24.420Z,18.70
2023-01-18T01:49:01.977Z,19.15
2023-01-18T01:51:29.998Z,18.58
2023-01-18T01:54:03.463Z,19.85
2023-01-18T01:56:33.229Z,18.38
2023-01-18T01:59:03.173Z,18.75
2023-01-18T02:01:30.715Z,18.85
2023-01-18T02:04:01.201Z,18.58
2023-01-18T02:06:33.983Z,19.80
2023-01-18T02:09:03.769Z,18.90
2023-01-18T02:11:31.234Z,20.08
2023-01-18T02:14:04.298Z,19.63
2023-01-18T02:16:54.015Z,19.88
2023-01-18T02:20:01.154Z,18.70
2023-01-18T02:23:03.139Z,19.95
2023-01-18T02:25:32.109Z,19.40
2023-01-18T02:28:03.640Z,19.52
2023-01-18T02:30:44.738Z,19.77
2023-01-18T02:33:32.018Z,19.45
2023-01-18T02:36:03.164Z,19.13
2023-01-18T02:38:34.298Z,19.10
2023-01-18T02:41:48.238Z,19.30
2023-01-18T02:44:39.849Z,19.38
2023-01-18T02:47:09.657Z,18.33
2023-01-18T02:49:37.474Z,18.33
2023-01-18T02:52:06.985Z,19.00
2023-01-18T02:54:40.193Z,18.40
2023-01-18T02:57:15.412Z,19.15
2023-01-18T02:59:48.582Z,18.95
2023-01-18T03:02:18.730Z,18.73
2023-01-18T03:04:56.251Z,19.45
2023-01-18T03:07:33.988Z,19.35
2023-01-18T03:10:05.947Z,20.30
2023-01-18T03:12:59.489Z,18.50
2023-01-18T03:15:27.740Z,19.85
2023-01-18T03:17:59.694Z,19.95
2023-01-18T03:20:33.084Z,19.52
2023-01-18T03:23:41.147Z,20.25
2023-01-18T03:26:14.695Z,18.95
2023-01-18T03:29:04.909Z,17.90
2023-01-18T03:32:12.071Z,18.13
2023-01-18T03:35:03.717Z,17.98
2023-01-18T03:37:33.772Z,19.05
2023-01-18T03:40:03.471Z,18.42
2023-01-18T03:42:38.238Z,18.00
2023-01-18T03:45:13.805Z,18.88
2023-01-18T03:47:42.806Z,19.63
2023-01-18T03:50:11.157Z,18.92
2023-01-18T03:52:43.408Z,17.90
2023-01-18T03:55:19.411Z,17.80
2023-01-18T03:57:55.023Z,19.15
2023-01-18T04:00:23.591Z,18.33
2023-01-18T04:02:52.832Z,17.50
2023-01-18T04:05:20.718Z,17.60
2023-01-18T04:07:48.316Z,18.25
2023-01-18T04:10:16.016Z,18.17
2023-01-18T04:12:43.245Z,18.05
2023-01-18T04:15:11.132Z,17.35
2023-01-18T04:17:39.939Z,17.63
2023-01-18T04:20:09.149Z,16.42
2023-01-18T04:22:37.423Z,17.20
2023-01-18T04:25:05.091Z,17.63
2023-01-18T04:27:32.634Z,16.02
2023-01-18T04:30:01.414Z,15.73
2023-01-18T04:32:29.242Z,17.77
2023-01-18T04:34:56.555Z,17.50
2023-01-18T04:37:34.288Z,18.35
2023-01-18T04:40:02.664Z,18.85
2023-01-18T04:42:31.265Z,18.05
2023-01-18T04:45:00.090Z,17.55
2023-01-18T04:47:29.474Z,17.23
2023-01-18T04:49:58.096Z,17.38
2023-01-18T04:52:27.828Z,17.50
2023-01-18T04:54:55.439Z,17.33
2023-01-18T04:57:23.519Z,18.13
2023-01-18T04:59:50.785Z,16.73
2023-01-18T05:02:18.424Z,16.50
2023-01-18T05:04:45.757Z,15.90
2023-01-18T05:07:13.559Z,16.00
2023-01-18T05:09:40.903Z,16.60
2023-01-18T05:12:09.012Z,17.17
2023-01-18T05:14:37.020Z,17.42
2023-01-18T05:17:04.324Z,15.98
2023-01-18T05:19:32.229Z,15.73
2023-01-18T05:21:59.500Z,17.42
2023-01-18T05:24:29.869Z,17.40
2023-01-18T05:26:58.047Z,17.10
2023-01-18T05:29:25.644Z,17.35
2023-01-18T05:31:53.580Z,18.08
2023-01-18T05:34:20.943Z,17.67
2023-01-18T05:36:49.585Z,17.65
2023-01-18T05:39:17.517Z,17.25
2023-01-18T05:41:45.598Z,16.67
2023-01-18T05:44:14.523Z,15.55
2023-01-18T05:46:43.196Z,16.17
2023-01-18T05:49:10.530Z,16.35
2023-01-18T05:51:38.984Z,16.30
2023-01-18T05:54:06.647Z,16.08
2023-01-18T05:56:34.233Z,16.42
2023-01-18T05:59:02.146Z,17.73
2023-01-18T06:01:29.687Z,18.85
2023-01-18T06:03:56.901Z,19.05
2023-01-18T06:06:24.560Z,19.92
2023-01-18T06:08:52.569Z,20.52
2023-01-18T06:11:20.385Z,20.10
2023-01-18T06:13:47.801Z,18.48
2023-01-18T06:16:15.454Z,18.27
2023-01-18T06:18:45.554Z,17.92
2023-01-18T06:21:15.412Z,18.50
2023-01-18T06:23:44.446Z,16.55
2023-01-18T06:26:12.624Z,17.27
2023-01-18T06:28:41.027Z,17.02
2023-01-18T06:31:09.057Z,17.48
2023-01-18T06:33:38.243Z,16.15
2023-01-18T06:36:07.021Z,16.73
2023-01-18T06:38:35.744Z,17.00
2023-01-18T06:41:04.655Z,15.60
2023-01-18T06:43:32.358Z,15.80
2023-01-18T06:46:00.563Z,15.48
2023-01-18T06:48:30.369Z,17.38
2023-01-18T06:50:59.524Z,16.95
2023-01-18T06:53:28.505Z,16.55
2023-01-18T06:56:01.059Z,17.10
2023-01-18T06:58:33.396Z,18.40
2023-01-18T07:01:02.172Z,18.75
2023-01-18T07:03:32.103Z,19.23
2023-01-18T07:06:03.836Z,20.38
2023-01-18T07:08:33.022Z,19.70
2023-01-18T07:11:05.453Z,18.25
2023-01-18T07:13:35.629Z,17.02
2023-01-18T07:16:03.422Z,18.85
2023-01-18T07:18:31.032Z,17.48
2023-01-18T07:20:58.526Z,18.27
2023-01-18T07:23:26.478Z,19.67
2023-01-18T07:26:04.348Z,20.95
2023-01-18T07:28:33.571Z,18.98
2023-01-18T07:31:03.197Z,17.75
2023-01-18T07:33:31.482Z,17.60
2023-01-18T07:35:59.085Z,17.70
2023-01-18T07:38:26.762Z,17.58
2023-01-18T07:41:05.521Z,15.93
2023-01-18T07:43:34.528Z,15.10
2023-01-18T07:46:04.203Z,13.60
2023-01-18T07:48:32.497Z,12.35
2023-01-18T07:51:02.104Z,10.65
2023-01-18T07:53:30.964Z,11.35
2023-01-18T07:56:01.494Z,10.25
2023-01-18T07:58:29.948Z,9.90
2023-01-18T08:01:05.717Z,9.10
2023-01-18T08:03:33.889Z,10.35
2023-01-18T08:06:02.535Z,10.15
2023-01-18T08:08:30.573Z,10.35
2023-01-18T08:11:00.120Z,10.07
2023-01-18T08:13:28.477Z,10.90
2023-01-18T08:15:59.083Z,10.00
2023-01-18T08:18:27.020Z,10.07
2023-01-18T08:20:55.311Z,10.82
2023-01-18T08:23:23.434Z,10.50
2023-01-18T08:25:51.404Z,10.38
2023-01-18T08:28:19.631Z,10.07
2023-01-18T08:30:48.537Z,8.93
2023-01-18T08:33:16.319Z,9.75
2023-01-18T08:35:47.047Z,10.85
2023-01-18T08:38:16.949Z,10.30
2023-01-18T08:40:44.193Z,9.38
2023-01-18T08:43:12.324Z,9.75
2023-01-18T08:45:39.527Z,10.48
2023-01-18T08:48:10.608Z,10.25
2023-01-18T08:50:39.417Z,10.82
2023-01-18T08:53:06.728Z,11.32
2023-01-18T08:55:36.651Z,10.00
2023-01-18T08:58:03.991Z,10.95
2023-01-18T09:00:31.675Z,11.73
2023-01-18T09:02:59.838Z,11.45
2023-01-18T09:05:28.030Z,12.27
2023-01-18T09:07:57.964Z,12.55
2023-01-18T09:10:25.500Z,12.10
2023-01-18T09:12:54.319Z,12.25
2023-01-18T09:15:22.083Z,12.43
2023-01-18T09:17:49.443Z,11.52
2023-01-18T09:20:18.857Z,10.63
2023-01-18T09:22:48.227Z,10.65
2023-01-18T09:25:18.289Z,9.45
2023-01-18T09:27:46.904Z,11.38
2023-01-18T09:30:16.503Z,10.40
2023-01-18T09:32:43.797Z,9.68
2023-01-18T09:35:11.450Z,8.93
2023-01-18T09:37:38.702Z,8.77
2023-01-18T09:40:06.810Z,8.48
2023-01-18T09:42:38.077Z,9.07
2023-01-18T09:45:06.469Z,8.23
2023-01-18T09:47:43.641Z,9.50
2023-01-18T09:50:15.955Z,8.70
2023-01-18T09:52:54.743Z,9.05
2023-01-18T09:55:28.863Z,8.45
2023-01-18T09:58:15.910Z,9.20
2023-01-18T10:00:47.757Z,8.82
2023-01-18T10:03:18.982Z,9.77
2023-01-18T10:06:08.699Z,10.18
2023-01-18T10:08:53.425Z,9.63
2023-01-18T10:11:32.055Z,8.55
2023-01-18T10:14:07.363Z,10.18
2023-01-18T10:16:36.348Z,9.70
2023-01-18T10:19:04.514Z,9.82
2023-01-18T10:21:55.096Z,10.90
2023-01-18T10:24:26.872Z,9.70
2023-01-18T10:27:03.576Z,10.20
2023-01-18T10:29:58.131Z,10.38
2023-01-18T10:32:27.893Z,9.68
2023-01-18T10:34:55.753Z,9.60
2023-01-18T10:37:39.256Z,9.30
2023-01-18T10:40:10.424Z,10.02
2023-01-18T10:43:02.689Z,10.52
2023-01-18T10:45:33.962Z,11.52
2023-01-18T10:48:17.603Z,11.77
2023-01-18T10:50:50.528Z,11.35
2023-01-18T10:55:56.012Z,11.55
2023-01-18T10:58:46.860Z,10.75
2023-01-18T11:01:20.400Z,11.27
2023-01-18T11:03:52.353Z,8.85
2023-01-18T11:06:21.142Z,11.63
2023-01-18T11:08:50.198Z,11.80
2023-01-18T11:11:20.443Z,10.73
2023-01-18T11:13:50.110Z,10.30
2023-01-18T11:16:21.202Z,11.43
2023-01-18T11:19:16.180Z,11.70
2023-01-18T11:21:47.542Z,11.80
2023-01-18T11:24:19.661Z,10.82
2023-01-18T11:26:54.353Z,13.13
2023-01-18T11:31:53.135Z,11.40
2023-01-18T11:34:25.430Z,12.98
2023-01-18T11:36:53.052Z,12.73
2023-01-18T11:39:33.439Z,13.80
2023-01-18T11:42:24.461Z,13.20
2023-01-18T11:45:00.369Z,12.57
2023-01-18T11:47:38.598Z,14.68
2023-01-18T11:50:28.444Z,15.75
2023-01-18T11:53:11.475Z,12.23
2023-01-18T11:55:43.937Z,12.10
2023-01-18T11:58:23.545Z,11.38
2023-01-18T12:01:04.325Z,10.90
2023-01-18T12:03:48.710Z,11.65
2023-01-18T12:06:47.926Z,10.93
2023-01-18T12:09:32.567Z,10.52
2023-01-18T12:12:20.046Z,9.93
2023-01-18T12:15:23.345Z,10.48
2023-01-18T12:18:22.167Z,10.45
2023-01-18T12:20:58.743Z,10.80
2023-01-18T12:23:45.482Z,11.05
2023-01-18T12:26:20.418Z,10.95
2023-01-18T12:29:16.515Z,10.65
2023-01-18T12:31:47.321Z,12.77
2023-01-18T12:34:20.659Z,12.68
2023-01-18T12:37:04.145Z,10.85
2023-01-18T12:39:51.420Z,10.23
2023-01-18T12:42:21.857Z,10.00
2023-01-18T12:44:58.464Z,9.70
2023-01-18T12:47:35.590Z,9.60
2023-01-18T12:50:13.439Z,9.63
2023-01-18T12:52:48.489Z,9.82
2023-01-18T12:55:21.630Z,9.75
2023-01-18T12:57:52.063Z,9.57
2023-01-18T13:00:25.502Z,10.52
2023-01-18T13:02:57.961Z,9.73
2023-01-18T13:05:35.079Z,10.00
2023-01-18T13:08:15.709Z,15.32
2023-01-18T13:10:44.839Z,16.83
2023-01-18T13:13:18.018Z,16.10
2023-01-18T13:15:57.347Z,17.60
2023-01-18T13:18:48.571Z,17.55
2023-01-18T13:21:36.810Z,18.33
2023-01-18T13:24:24.276Z,18.65
2023-01-18T13:26:53.662Z,18.95
2023-01-18T13:29:29.917Z,18.63
2023-01-18T13:31:58.681Z,19.63
2023-01-18T13:34:37.006Z,19.75
2023-01-18T13:37:44.681Z,19.50
2023-01-18T13:40:35.584Z,19.17
2023-01-18T13:43:04.090Z,19.10
2023-01-18T13:45:32.223Z,20.00
2023-01-18T13:48:26.178Z,20.15
2023-01-18T13:50:54.520Z,19.30
2023-01-18T13:53:23.238Z,19.10
2023-01-18T13:56:21.921Z,19.50
2023-01-18T13:58:57.556Z,19.08
2023-01-18T14:01:27.592Z,19.15
2023-01-18T14:03:55.939Z,21.50
2023-01-18T14:06:43.837Z,21.55
2023-01-18T14:09:15.230Z,22.13
2023-01-18T14:11:52.596Z,22.40
2023-01-18T14:14:20.503Z,21.48
2023-01-18T14:16:55.283Z,20.83
2023-01-18T14:19:23.356Z,21.73
2023-01-18T14:22:26.313Z,20.55
2023-01-18T14:25:25.236Z,20.77
2023-01-18T14:28:11.241Z,20.45
2023-01-18T14:30:41.193Z,21.75
2023-01-18T14:33:15.839Z,22.10
2023-01-18T14:38:20.661Z,22.20
2023-01-18T14:40:51.492Z,24.33
2023-01-18T14:43:32.636Z,24.08
2023-01-18T14:46:00.954Z,24.45
2023-01-18T14:48:30.998Z,23.10
2023-01-18T14:51:00.128Z,22.98
2023-01-18T14:53:31.662Z,23.05
2023-01-18T14:56:08.538Z,24.70
2023-01-18T14:58:42.093Z,22.95
2023-01-18T15:01:26.147Z,23.98
2023-01-18T15:03:57.221Z,23.95
2023-01-18T15:06:34.691Z,23.40
2023-01-18T15:09:05.314Z,25.85
2023-01-18T15:11:33.388Z,24.00
2023-01-18T15:14:00.975Z,24.85
2023-01-18T15:16:31.432Z,24.65
2023-01-18T15:19:01.716Z,25.73
2023-01-18T15:21:32.199Z,25.63
2023-01-18T15:24:06.533Z,24.00
2023-01-18T15:26:40.214Z,24.13
2023-01-18T15:29:14.714Z,23.30
2023-01-18T15:34:16.113Z,23.65
2023-01-18T15:36:45.520Z,23.02
2023-01-18T15:39:14.065Z,22.88
2023-01-18T15:41:43.589Z,23.35
2023-01-18T15:44:33.210Z,24.63
2023-01-18T15:47:01.641Z,24.90
2023-01-18T15:49:29.305Z,24.45
2023-01-18T15:51:57.267Z,24.73
2023-01-18T15:54:28.716Z,25.30
2023-01-18T15:57:10.325Z,24.17
2023-01-18T15:59:40.617Z,27.65
2023-01-18T16:02:09.100Z,24.65
2023-01-18T16:04:36.529Z,23.42
2023-01-18T16:07:24.674Z,23.52
2023-01-18T16:10:19.754Z,24.25
2023-01-18T16:12:47.268Z,25.25
2023-01-18T16:15:31.463Z,23.60
2023-01-18T16:18:05.152Z,17.70
2023-01-18T16:20:35.292Z,24.45
2023-01-18T16:23:09.822Z,24.45
2023-01-18T16:25:37.634Z,24.60
2023-01-18T16:28:05.229Z,24.75
2023-01-18T16:30:38.720Z,23.75
2023-01-18T16:33:17.744Z,18.48
2023-01-18T16:35:46.673Z,23.50
2023-01-18T16:38:16.750Z,22.65
2023-01-18T16:40:46.050Z,23.75
2023-01-18T16:43:23.731Z,22.65
2023-01-18T16:45:53.418Z,22.35
2023-01-18T16:48:23.963Z,23.77
2023-01-18T16:50:52.011Z,23.35
2023-01-18T16:53:19.297Z,23.05
2023-01-18T16:55:48.403Z,22.60
2023-01-18T16:58:17.160Z,23.73
2023-01-18T17:01:06.278Z,23.13
2023-01-18T17:03:36.151Z,23.35
2023-01-18T17:06:03.993Z,23.33
2023-01-18T17:08:31.520Z,22.58
2023-01-18T17:10:58.878Z,22.63
2023-01-18T17:13:26.625Z,24.58
2023-01-18T17:15:54.280Z,22.65
2023-01-18T17:18:25.979Z,22.42
2023-01-18T17:20:54.089Z,24.02
2023-01-18T17:23:22.396Z,23.60
2023-01-18T17:25:49.849Z,26.27
2023-01-18T17:28:19.200Z,22.95
2023-01-18T17:30:49.437Z,22.98
2023-01-18T17:33:19.674Z,24.27
2023-01-18T17:35:48.521Z,25.63
2023-01-18T17:38:23.261Z,26.38
2023-01-18T17:40:51.211Z,24.83
2023-01-18T17:43:32.193Z,25.77
2023-01-18T17:46:04.005Z,26.73
2023-01-18T17:48:31.376Z,26.02
2023-01-18T17:50:58.904Z,25.85
2023-01-18T17:53:26.467Z,26.35
2023-01-18T17:55:53.784Z,25.52
2023-01-18T17:58:21.080Z,26.02
2023-01-18T18:00:48.350Z,25.80
2023-01-18T18:03:16.005Z,25.85
2023-01-18T18:05:43.844Z,26.48
2023-01-18T18:08:11.331Z,26.67
2023-01-18T18:10:38.629Z,25.60
2023-01-18T18:13:05.891Z,24.83
2023-01-18T18:15:33.131Z,25.38
2023-01-18T18:18:00.412Z,24.50
2023-01-18T18:20:27.613Z,23.90
2023-01-18T18:22:54.897Z,24.73
2023-01-18T18:25:22.111Z,25.25
2023-01-18T18:27:49.499Z,25.65
2023-01-18T18:30:17.770Z,25.55
2023-01-18T18:32:45.254Z,24.88
2023-01-18T18:35:24.380Z,25.63
2023-01-18T18:37:54.388Z,26.75
2023-01-18T18:40:22.074Z,25.60
2023-01-18T18:43:01.296Z,26.50
2023-01-18T18:45:31.701Z,25.15
2023-01-18T18:47:59.080Z,25.55
2023-01-18T18:50:26.551Z,24.58
2023-01-18T18:52:53.931Z,24.42
2023-01-18T18:55:21.414Z,24.33
2023-01-18T18:57:49.378Z,23.73
2023-01-18T19:00:17.199Z,24.42
2023-01-18T19:02:44.569Z,24.20
2023-01-18T19:05:12.219Z,25.35
2023-01-18T19:07:40.176Z,26.05
2023-01-18T19:10:08.058Z,25.08
2023-01-18T19:12:35.886Z,26.17
2023-01-18T19:15:04.017Z,25.73
2023-01-18T19:17:31.818Z,27.20
2023-01-18T19:19:59.763Z,26.55
2023-01-18T19:22:27.592Z,25.88
2023-01-18T19:24:54.905Z,27.00
2023-01-18T19:27:24.745Z,30.33
2023-01-18T19:29:53.551Z,27.65
2023-01-18T19:32:21.212Z,27.75
2023-01-18T19:34:48.694Z,27.25
2023-01-18T19:37:16.025Z,26.63
2023-01-18T19:39:43.598Z,25.60
2023-01-18T19:42:11.028Z,26.70
2023-01-18T19:44:39.007Z,25.98
2023-01-18T19:47:06.429Z,25.73
2023-01-18T19:49:34.372Z,27.45
2023-01-18T19:52:02.671Z,27.75
2023-01-18T19:54:30.445Z,26.83
2023-01-18T19:56:58.398Z,26.92
2023-01-18T19:59:26.045Z,26.70
2023-01-18T20:01:53.731Z,26.75
2023-01-18T20:04:21.440Z,26.50
2023-01-18T20:06:49.224Z,26.20
2023-01-18T20:09:22.041Z,25.88
2023-01-18T20:11:50.836Z,18.60
2023-01-18T20:14:19.492Z,25.40
2023-01-18T20:16:48.049Z,28.35
2023-01-18T20:19:17.779Z,27.10
2023-01-18T20:21:46.914Z,26.73
2023-01-18T20:24:14.782Z,27.45
2023-01-18T20:26:42.784Z,26.50
2023-01-18T20:29:10.364Z,26.02
2023-01-18T20:31:39.496Z,26.08
2023-01-18T20:34:07.819Z,25.95
2023-01-18T20:36:36.454Z,28.00
2023-01-18T20:39:05.117Z,26.98
2023-01-18T20:41:32.753Z,28.05
2023-01-18T20:44:00.197Z,26.58
2023-01-18T20:46:27.734Z,26.70
2023-01-18T20:48:55.081Z,26.95
2023-01-18T20:51:23.079Z,26.50
2023-01-18T20:53:50.792Z,25.65
2023-01-18T20:56:28.782Z,26.63
2023-01-18T20:58:58.218Z,27.08
2023-01-18T21:01:32.608Z,26.23
2023-01-18T21:06:29.589Z,24.65
2023-01-18T21:08:58.574Z,26.25
2023-01-18T21:11:26.966Z,25.38
2023-01-18T21:13:55.545Z,26.55
2023-01-18T21:16:23.769Z,25.65
2023-01-18T21:18:56.269Z,25.90
2023-01-18T21:21:24.109Z,26.10
2023-01-18T21:23:51.847Z,26.65
2023-01-18T21:26:19.520Z,27.48
2023-01-18T21:28:46.731Z,27.83
2023-01-18T21:31:14.233Z,25.38
2023-01-18T21:33:42.824Z,25.08
2023-01-18T21:36:13.824Z,25.48
2023-01-18T21:38:41.448Z,25.00
2023-01-18T21:41:29.146Z,24.30
2023-01-18T21:44:16.498Z,23.75
2023-01-18T21:46:48.501Z,25.02
2023-01-18T21:49:57.618Z,24.88
2023-01-18T21:52:43.674Z,24.70
2023-01-18T21:55:11.251Z,25.20
2023-01-18T21:57:38.940Z,23.77
2023-01-18T22:00:07.816Z,24.40
2023-01-18T22:02:36.254Z,24.45
2023-01-18T22:05:04.743Z,23.48
2023-01-18T22:07:34.823Z,23.75
2023-01-18T22:10:06.035Z,23.80
2023-01-18T22:12:36.220Z,24.13
2023-01-18T22:15:05.395Z,25.23
2023-01-18T22:17:33.174Z,25.25
2023-01-18T22:20:02.168Z,25.77
2023-01-18T22:22:29.740Z,25.65
2023-01-18T22:24:57.842Z,24.92
2023-01-18T22:27:25.276Z,25.45
2023-01-18T22:29:52.933Z,24.23
2023-01-18T22:32:21.959Z,26.27
2023-01-18T22:34:49.543Z,25.90
2023-01-18T22:37:17.244Z,24.80
2023-01-18T22:39:44.844Z,25.63
2023-01-18T22:42:12.172Z,25.15
2023-01-18T22:44:39.545Z,23.92
2023-01-18T22:47:07.051Z,24.70
2023-01-18T22:49:34.345Z,24.90
2023-01-18T22:52:01.680Z,23.30
2023-01-18T22:54:29.049Z,23.45
2023-01-18T22:56:56.292Z,25.70
2023-01-18T22:59:23.692Z,23.50
2023-01-18T23:01:50.938Z,17.45
2023-01-18T23:04:18.985Z,16.55
2023-01-18T23:06:48.247Z,14.82
2023-01-18T23:09:17.815Z,12.68
2023-01-18T23:11:45.783Z,11.00
2023-01-18T23:14:33.466Z,8.95
2023-01-18T23:17:20.624Z,7.05
2023-01-18T23:19:48.163Z,6.07
2023-01-18T23:22:15.338Z,5.88
2023-01-18T23:24:42.622Z,3.80
2023-01-18T23:27:10.301Z,4.20
2023-01-18T23:29:39.353Z,3.80
2023-01-18T23:32:07.397Z,3.80
2023-01-18T23:34:34.852Z,3.65
2023-01-18T23:37:02.466Z,3.47
2023-01-18T23:39:49.614Z,3.42
2023-01-18T23:42:37.089Z,3.55
2023-01-18T23:45:24.819Z,3.10
2023-01-18T23:48:12.091Z,3.30
2023-01-18T23:50:59.615Z,2.70
2023-01-18T23:53:47.004Z,2.60
2023-01-18T23:56:14.601Z,2.90
2023-01-18T23:58:41.912Z,3.17
